createdAt,value
2023-02-13T01:32:45.466Z,1014.03
2023-02-13T01:33:07.261Z,1014.02
2023-02-13T01:34:06.201Z,1014.03
2023-02-13T01:39:59.065Z,1013.99
2023-02-13T01:40:29.919Z,1014.05
2023-02-13T01:41:28.779Z,1014.02
2023-02-13T01:50:03.697Z,1013.96
2023-02-13T01:50:38.664Z,1013.99
2023-02-13T01:51:38.614Z,1013.97
2023-02-13T02:07:50.213Z,1014.02
2023-02-13T02:08:06.121Z,1013.95
2023-02-13T02:09:06.123Z,1013.98
2023-02-13T02:19:07.690Z,1013.97
2023-02-13T02:19:43.770Z,1014.00
2023-02-13T02:32:43.304Z,1013.93
2023-02-13T02:33:24.224Z,1013.88
2023-02-13T02:34:22.993Z,1013.94
2023-02-13T02:37:27.584Z,1013.91
2023-02-13T02:37:49.020Z,1013.95
2023-02-13T02:38:49.023Z,1013.90
2023-02-13T02:48:42.994Z,1013.98
2023-02-13T02:49:26.861Z,1013.95
2023-02-13T02:51:56.420Z,1013.92
2023-02-13T02:52:51.823Z,1013.91
2023-02-13T02:53:51.818Z,1013.95
2023-02-13T02:58:06.506Z,1013.92
2023-02-13T02:58:46.409Z,1013.90
2023-02-13T02:59:45.346Z,1013.93
2023-02-13T03:01:08.648Z,1013.88
2023-02-13T03:01:45.318Z,1013.87
2023-02-13T03:02:45.321Z,1013.84
2023-02-13T03:03:45.336Z,1013.83
2023-02-13T03:04:45.335Z,1013.77
2023-02-13T03:05:45.314Z,1013.85
2023-02-13T03:06:45.285Z,1013.83
2023-02-13T03:07:45.266Z,1013.86
2023-02-13T03:08:45.251Z,1013.82
2023-02-13T03:09:45.246Z,1013.81
2023-02-13T03:10:45.242Z,1013.84
2023-02-13T03:11:45.223Z,1013.80
2023-02-13T03:12:45.209Z,1013.81
2023-02-13T03:16:49.287Z,1013.82
2023-02-13T03:17:37.174Z,1013.90
2023-02-13T03:18:37.131Z,1013.82
2023-02-13T03:30:14.264Z,1013.87
2023-02-13T03:30:57.432Z,1013.81
2023-02-13T03:31:57.134Z,1013.80
2023-02-13T03:34:27.220Z,1013.83
2023-02-13T03:35:23.233Z,1013.82
2023-02-13T03:36:23.096Z,1013.85
2023-02-13T03:37:23.005Z,1013.88
2023-02-13T03:42:45.049Z,1013.84
2023-02-13T03:43:41.964Z,1013.80
2023-02-13T03:44:41.918Z,1013.85
2023-02-13T04:00:42.448Z,1013.89
2023-02-13T04:01:06.391Z,1013.88
2023-02-13T04:02:06.361Z,1013.97
2023-02-13T04:07:00.496Z,1013.95
2023-02-13T04:07:59.364Z,1013.94
2023-02-13T04:08:59.353Z,1013.92
2023-02-13T04:09:59.355Z,1013.91
2023-02-13T04:10:59.710Z,1013.87
2023-02-13T04:11:59.337Z,1013.91
2023-02-13T04:12:59.322Z,1013.95
2023-02-13T04:13:59.312Z,1013.97
2023-02-13T04:14:59.289Z,1014.00
2023-02-13T04:15:59.296Z,1013.95
2023-02-13T04:16:59.290Z,1013.92
2023-02-13T04:17:59.292Z,1013.94
2023-02-13T04:18:59.244Z,1014.09
2023-02-13T04:19:59.233Z,1013.99
2023-02-13T04:20:59.534Z,1014.01
2023-02-13T04:21:59.225Z,1013.98
2023-02-13T04:22:59.208Z,1014.08
2023-02-13T04:23:59.200Z,1014.05
2023-02-13T04:24:59.186Z,1014.00
2023-02-13T04:25:59.204Z,1013.98
2023-02-13T04:26:59.190Z,1014.02
2023-02-13T04:27:59.339Z,1013.96
2023-02-13T04:28:59.148Z,1013.95
2023-02-13T04:29:59.135Z,1013.98
2023-02-13T04:30:59.549Z,1013.93
2023-02-13T04:31:59.189Z,1013.92
2023-02-13T04:32:59.101Z,1013.99
2023-02-13T04:33:59.089Z,1013.95
2023-02-13T04:34:59.084Z,1013.99
2023-02-13T04:35:59.065Z,1013.95
2023-02-13T04:36:59.073Z,1013.92
2023-02-13T04:37:59.062Z,1013.91
2023-02-13T04:38:59.059Z,1013.92
2023-02-13T04:39:59.050Z,1013.98
2023-02-13T04:40:59.241Z,1013.88
2023-02-13T04:41:59.024Z,1013.94
2023-02-13T04:42:59.003Z,1013.90
2023-02-13T04:43:58.998Z,1013.92
2023-02-13T04:44:58.992Z,1013.86
2023-02-13T04:45:58.980Z,1013.90
2023-02-13T04:46:59.012Z,1013.91
2023-02-13T04:47:58.951Z,1013.91
2023-02-13T04:48:58.937Z,1013.87
2023-02-13T04:49:58.980Z,1013.83
2023-02-13T04:50:59.307Z,1013.80
2023-02-13T04:51:58.925Z,1013.90
2023-02-13T04:52:58.904Z,1013.74
2023-02-13T04:53:58.885Z,1013.73
2023-02-13T04:54:58.881Z,1013.74
2023-02-13T04:55:58.864Z,1013.75
2023-02-13T04:56:58.861Z,1013.78
2023-02-13T04:57:58.839Z,1013.72
2023-02-13T04:58:58.849Z,1013.75
2023-02-13T04:59:58.821Z,1013.74
2023-02-13T05:00:59.340Z,1013.82
2023-02-13T05:01:58.812Z,1013.77
2023-02-13T05:02:58.788Z,1013.75
2023-02-13T05:03:58.789Z,1013.77
2023-02-13T05:04:58.765Z,1013.81
2023-02-13T05:05:58.756Z,1013.73
2023-02-13T05:06:58.759Z,1013.79
2023-02-13T05:07:58.752Z,1013.77
2023-02-13T05:08:58.790Z,1013.75
2023-02-13T05:09:58.771Z,1013.76
2023-02-13T05:10:59.044Z,1013.74
2023-02-13T05:11:58.723Z,1013.78
2023-02-13T05:12:58.691Z,1013.80
2023-02-13T05:13:58.675Z,1013.80
2023-02-13T05:14:58.686Z,1013.74
2023-02-13T05:15:58.735Z,1013.71
2023-02-13T05:16:58.684Z,1013.82
2023-02-13T05:17:58.634Z,1013.77
2023-02-13T05:18:58.646Z,1013.69
2023-02-13T05:19:58.616Z,1013.64
2023-02-13T05:20:58.959Z,1013.67
2023-02-13T05:21:58.610Z,1013.70
2023-02-13T05:22:58.588Z,1013.78
2023-02-13T05:23:58.569Z,1013.75
2023-02-13T05:24:58.560Z,1013.73
2023-02-13T05:25:58.539Z,1013.72
2023-02-13T05:26:58.533Z,1013.73
2023-02-13T05:27:58.529Z,1013.73
2023-02-13T05:28:58.518Z,1013.74
2023-02-13T05:29:58.499Z,1013.77
2023-02-13T05:30:58.858Z,1013.79
2023-02-13T05:31:58.666Z,1013.84
2023-02-13T05:32:58.476Z,1013.81
2023-02-13T05:33:58.453Z,1013.82
2023-02-13T05:34:58.447Z,1013.82
2023-02-13T05:35:58.442Z,1013.81
2023-02-13T05:36:58.438Z,1013.84
2023-02-13T05:37:58.419Z,1013.83
2023-02-13T05:38:58.402Z,1013.86
2023-02-13T05:39:58.393Z,1013.85
2023-02-13T05:40:58.670Z,1013.81
2023-02-13T05:41:58.371Z,1013.83
2023-02-13T05:42:58.369Z,1013.84
2023-02-13T05:43:58.344Z,1013.77
2023-02-13T05:44:58.339Z,1013.81
2023-02-13T05:45:58.382Z,1013.87
2023-02-13T05:46:58.316Z,1013.80
2023-02-13T05:47:58.322Z,1013.76
2023-02-13T05:48:58.309Z,1013.83
2023-02-13T05:49:58.283Z,1013.78
2023-02-13T05:50:58.675Z,1013.88
2023-02-13T05:51:58.267Z,1013.84
2023-02-13T05:52:58.267Z,1013.80
2023-02-13T05:53:58.246Z,1013.84
2023-02-13T05:54:58.239Z,1013.82
2023-02-13T05:55:58.229Z,1013.85
2023-02-13T05:56:58.216Z,1013.81
2023-02-13T05:57:58.221Z,1013.82
2023-02-13T05:58:58.200Z,1013.74
2023-02-13T05:59:58.963Z,1013.88
2023-02-13T06:00:58.604Z,1013.81
2023-02-13T06:01:58.183Z,1013.88
2023-02-13T06:02:58.185Z,1013.89
2023-02-13T06:03:59.611Z,1013.86
2023-02-13T06:04:58.130Z,1013.81
2023-02-13T06:05:58.121Z,1013.82
2023-02-13T06:06:58.112Z,1013.87
2023-02-13T06:07:58.129Z,1013.91
2023-02-13T06:08:58.099Z,1013.88
2023-02-13T06:09:58.077Z,1013.94
2023-02-13T06:10:58.313Z,1013.90
2023-02-13T06:11:58.056Z,1013.93
2023-02-13T06:12:58.055Z,1013.95
2023-02-13T06:13:58.037Z,1013.86
2023-02-13T06:14:58.025Z,1013.79
2023-02-13T06:15:58.066Z,1013.81
2023-02-13T06:16:58.011Z,1013.87
2023-02-13T06:17:58.010Z,1013.86
2023-02-13T06:18:58.086Z,1013.87
2023-02-13T06:19:57.991Z,1013.89
2023-02-13T06:20:58.247Z,1013.84
2023-02-13T06:21:57.946Z,1013.87
2023-02-13T06:22:57.947Z,1013.89
2023-02-13T06:23:57.938Z,1013.85
2023-02-13T06:24:57.912Z,1013.83
2023-02-13T06:25:57.912Z,1013.86
2023-02-13T06:26:57.910Z,1013.92
2023-02-13T06:27:57.891Z,1013.84
2023-02-13T06:28:57.869Z,1013.96
2023-02-13T06:29:57.860Z,1013.85
2023-02-13T06:30:58.201Z,1013.90
2023-02-13T06:31:57.864Z,1013.87
2023-02-13T06:32:57.845Z,1013.88
2023-02-13T06:33:57.823Z,1013.88
2023-02-13T06:34:57.803Z,1013.88
2023-02-13T06:35:57.802Z,1013.91
2023-02-13T06:36:57.788Z,1014.01
2023-02-13T06:37:57.793Z,1013.94
2023-02-13T06:38:57.773Z,1014.02
2023-02-13T06:39:57.763Z,1013.89
2023-02-13T06:40:57.983Z,1013.94
2023-02-13T06:41:57.742Z,1013.98
2023-02-13T06:42:57.731Z,1014.02
2023-02-13T06:43:57.712Z,1013.95
2023-02-13T06:44:57.711Z,1014.05
2023-02-13T06:45:57.702Z,1013.91
2023-02-13T06:46:57.752Z,1013.95
2023-02-13T06:47:57.678Z,1013.97
2023-02-13T06:48:57.657Z,1014.01
2023-02-13T06:49:57.663Z,1014.03
2023-02-13T06:50:58.127Z,1014.01
2023-02-13T06:51:57.631Z,1014.02
2023-02-13T06:52:57.618Z,1014.04
2023-02-13T06:53:57.621Z,1014.05
2023-02-13T06:55:04.702Z,1014.01
2023-02-13T06:55:57.636Z,1014.12
2023-02-13T06:56:57.578Z,1013.99
2023-02-13T06:57:57.573Z,1014.05
2023-02-13T06:58:57.566Z,1014.08
2023-02-13T06:59:57.552Z,1014.11
2023-02-13T07:00:57.968Z,1014.08
2023-02-13T07:01:57.529Z,1014.07
2023-02-13T07:02:57.537Z,1014.07
2023-02-13T07:03:57.525Z,1014.10
2023-02-13T07:04:57.513Z,1014.12
2023-02-13T07:05:57.492Z,1014.14
2023-02-13T07:06:57.476Z,1014.12
2023-02-13T07:07:58.656Z,1014.12
2023-02-13T07:08:58.593Z,1014.16
2023-02-13T07:09:58.588Z,1014.16
2023-02-13T07:10:58.883Z,1014.17
2023-02-13T07:11:58.565Z,1014.18
2023-02-13T07:13:05.733Z,1014.21
2023-02-13T07:14:00.548Z,1014.11
2023-02-13T07:14:58.553Z,1014.14
2023-02-13T07:15:58.542Z,1014.18
2023-02-13T07:16:58.540Z,1014.11
2023-02-13T07:17:58.511Z,1014.19
2023-02-13T07:18:58.525Z,1014.18
2023-02-13T07:19:58.509Z,1014.17
2023-02-13T07:20:58.858Z,1014.09
2023-02-13T07:21:58.477Z,1014.08
2023-02-13T07:22:58.457Z,1014.12
2023-02-13T07:23:58.477Z,1014.10
2023-02-13T07:24:58.455Z,1014.14
2023-02-13T07:25:58.453Z,1014.12
2023-02-13T07:26:58.416Z,1014.14
2023-02-13T07:27:58.435Z,1014.19
2023-02-13T07:29:10.491Z,1014.15
2023-02-13T07:30:00.407Z,1014.20
2023-02-13T07:30:58.821Z,1014.12
2023-02-13T07:31:58.402Z,1014.14
2023-02-13T07:32:58.389Z,1014.19
2023-02-13T07:33:58.377Z,1014.16
2023-02-13T07:35:02.191Z,1014.18
2023-02-13T07:35:59.338Z,1014.17
2023-02-13T07:36:58.346Z,1014.27
2023-02-13T07:37:58.334Z,1014.11
2023-02-13T07:38:58.317Z,1014.21
2023-02-13T07:39:58.306Z,1014.12
2023-02-13T07:40:58.556Z,1014.13
2023-02-13T07:41:58.266Z,1014.14
2023-02-13T07:42:58.295Z,1014.19
2023-02-13T07:43:58.312Z,1014.15
2023-02-13T07:44:58.274Z,1014.19
2023-02-13T07:45:59.593Z,1014.19
2023-02-13T07:46:58.266Z,1014.20
2023-02-13T07:47:58.225Z,1014.17
2023-02-13T07:48:58.246Z,1014.18
2023-02-13T07:49:58.215Z,1014.22
2023-02-13T07:50:58.516Z,1014.27
2023-02-13T07:51:58.209Z,1014.26
2023-02-13T07:52:58.243Z,1014.16
2023-02-13T07:53:58.276Z,1014.14
2023-02-13T07:54:58.209Z,1014.20
2023-02-13T07:55:58.542Z,1014.24
2023-02-13T07:56:58.187Z,1014.30
2023-02-13T07:57:58.169Z,1014.19
2023-02-13T07:58:58.191Z,1014.19
2023-02-13T07:59:58.197Z,1014.25
2023-02-13T08:00:58.142Z,1014.17
2023-02-13T08:01:58.218Z,1014.23
2023-02-13T08:02:58.108Z,1014.22
2023-02-13T08:03:58.190Z,1014.23
2023-02-13T08:04:58.129Z,1014.20
2023-02-13T08:05:58.408Z,1014.18
2023-02-13T08:06:58.085Z,1014.20
2023-02-13T08:07:58.075Z,1014.21
2023-02-13T08:08:58.120Z,1014.21
2023-02-13T08:09:58.123Z,1014.16
2023-02-13T08:10:59.064Z,1014.13
2023-02-13T08:11:58.045Z,1014.25
2023-02-13T08:12:58.027Z,1014.23
2023-02-13T08:13:58.029Z,1014.20
2023-02-13T08:14:58.026Z,1014.28
2023-02-13T08:15:58.321Z,1014.28
2023-02-13T08:16:57.990Z,1014.17
2023-02-13T08:17:57.974Z,1014.21
2023-02-13T08:18:57.985Z,1014.14
2023-02-13T08:19:57.936Z,1014.17
2023-02-13T08:20:57.952Z,1014.15
2023-02-13T08:21:57.971Z,1014.28
2023-02-13T08:22:57.945Z,1014.17
2023-02-13T08:23:57.947Z,1014.19
2023-02-13T08:24:57.868Z,1014.36
2023-02-13T08:25:58.086Z,1014.28
2023-02-13T08:26:57.911Z,1014.28
2023-02-13T08:27:57.859Z,1014.21
2023-02-13T08:28:57.890Z,1014.30
2023-02-13T08:29:57.844Z,1014.21
2023-02-13T08:30:57.873Z,1014.14
2023-02-13T08:31:57.955Z,1014.26
2023-02-13T08:32:57.829Z,1014.33
2023-02-13T08:33:57.847Z,1014.13
2023-02-13T08:34:57.820Z,1014.18
2023-02-13T08:35:58.046Z,1014.22
2023-02-13T08:36:57.829Z,1014.13
2023-02-13T08:37:57.768Z,1014.20
2023-02-13T08:38:57.777Z,1014.16
2023-02-13T08:39:57.784Z,1014.22
2023-02-13T08:40:58.146Z,1014.22
2023-02-13T08:41:57.764Z,1014.16
2023-02-13T08:42:57.813Z,1014.19
2023-02-13T08:43:58.717Z,1014.21
2023-02-13T08:44:58.796Z,1014.16
2023-02-13T08:45:59.022Z,1014.13
2023-02-13T08:46:57.677Z,1014.17
2023-02-13T08:47:57.677Z,1014.20
2023-02-13T08:48:57.630Z,1014.23
2023-02-13T08:49:57.656Z,1014.19
2023-02-13T08:50:57.664Z,1014.13
2023-02-13T08:51:57.615Z,1014.23
2023-02-13T08:52:57.615Z,1014.15
2023-02-13T08:53:57.615Z,1014.11
2023-02-13T08:54:57.652Z,1014.19
2023-02-13T08:55:58.077Z,1014.19
2023-02-13T08:56:58.658Z,1014.20
2023-02-13T08:57:58.598Z,1014.30
2023-02-13T08:58:57.573Z,1014.21
2023-02-13T08:59:57.554Z,1014.19
2023-02-13T09:00:57.584Z,1014.22
2023-02-13T09:01:57.550Z,1014.22
2023-02-13T09:02:57.599Z,1014.27
2023-02-13T09:03:57.519Z,1014.19
2023-02-13T09:04:57.493Z,1014.29
2023-02-13T09:05:57.782Z,1014.35
2023-02-13T09:06:57.465Z,1014.29
2023-02-13T09:07:57.494Z,1014.19
2023-02-13T09:08:57.506Z,1014.17
2023-02-13T09:09:57.437Z,1014.29
2023-02-13T09:10:57.437Z,1014.18
2023-02-13T09:11:57.423Z,1014.16
2023-02-13T09:12:57.419Z,1014.18
2023-02-13T09:13:57.414Z,1014.14
2023-02-13T09:14:57.369Z,1014.15
2023-02-13T09:15:57.648Z,1014.18
2023-02-13T09:16:57.379Z,1014.22
2023-02-13T09:17:57.428Z,1014.24
2023-02-13T09:18:57.392Z,1014.23
2023-02-13T09:19:57.360Z,1014.33
2023-02-13T09:20:57.342Z,1014.27
2023-02-13T09:21:57.361Z,1014.27
2023-02-13T09:22:57.329Z,1014.30
2023-02-13T09:23:57.310Z,1014.34
2023-02-13T09:24:57.319Z,1014.24
2023-02-13T09:25:57.573Z,1014.20
2023-02-13T09:26:57.289Z,1014.20
2023-02-13T09:27:57.256Z,1014.19
2023-02-13T09:28:57.242Z,1014.22
2023-02-13T09:29:57.261Z,1014.19
2023-02-13T09:30:57.356Z,1014.26
2023-02-13T09:31:57.319Z,1014.25
2023-02-13T09:32:57.266Z,1014.29
2023-02-13T09:33:57.228Z,1014.29
2023-02-13T09:34:57.199Z,1014.25
2023-02-13T09:35:57.547Z,1014.20
2023-02-13T09:36:57.165Z,1014.29
2023-02-13T09:37:57.182Z,1014.28
2023-02-13T09:38:57.201Z,1014.29
2023-02-13T09:39:57.165Z,1014.27
2023-02-13T09:40:57.173Z,1014.29
2023-02-13T09:41:57.142Z,1014.26
2023-02-13T09:42:57.123Z,1014.23
2023-02-13T09:43:57.100Z,1014.22
2023-02-13T09:44:57.080Z,1014.30
2023-02-13T09:45:57.494Z,1014.16
2023-02-13T09:46:57.076Z,1014.25
2023-02-13T09:47:57.102Z,1014.26
2023-02-13T09:48:57.063Z,1014.30
2023-02-13T09:49:57.073Z,1014.25
2023-02-13T09:50:57.051Z,1014.31
2023-02-13T09:51:57.039Z,1014.26
2023-02-13T09:52:57.078Z,1014.25
2023-02-13T09:53:57.049Z,1014.24
2023-02-13T09:54:57.012Z,1014.29
2023-02-13T09:55:57.358Z,1014.22
2023-02-13T09:56:56.950Z,1014.24
2023-02-13T09:57:56.995Z,1014.23
2023-02-13T09:58:56.964Z,1014.26
2023-02-13T09:59:56.922Z,1014.26
2023-02-13T10:00:56.935Z,1014.21
2023-02-13T10:01:56.982Z,1014.27
2023-02-13T10:02:56.920Z,1014.30
2023-02-13T10:03:56.895Z,1014.20
2023-02-13T10:04:56.922Z,1014.29
2023-02-13T10:05:57.307Z,1014.32
2023-02-13T10:06:56.854Z,1014.22
2023-02-13T10:07:56.883Z,1014.22
2023-02-13T10:08:56.843Z,1014.28
2023-02-13T10:09:56.840Z,1014.26
2023-02-13T10:10:56.877Z,1014.30
2023-02-13T10:11:56.816Z,1014.23
2023-02-13T10:12:56.800Z,1014.25
2023-02-13T10:13:56.828Z,1014.21
2023-02-13T10:14:56.772Z,1014.20
2023-02-13T10:15:57.114Z,1014.17
2023-02-13T10:16:56.762Z,1014.14
2023-02-13T10:17:56.781Z,1014.20
2023-02-13T10:18:56.734Z,1014.19
2023-02-13T10:19:56.731Z,1014.19
2023-02-13T10:20:56.703Z,1014.17
2023-02-13T10:21:56.698Z,1014.17
2023-02-13T10:22:56.669Z,1014.17
2023-02-13T10:23:56.674Z,1014.24
2023-02-13T10:24:56.662Z,1014.22
2023-02-13T10:25:57.393Z,1014.21
2023-02-13T10:26:56.623Z,1014.16
2023-02-13T10:27:57.651Z,1014.17
2023-02-13T10:28:56.645Z,1014.20
2023-02-13T10:29:56.604Z,1014.26
2023-02-13T10:30:56.782Z,1014.17
2023-02-13T10:31:56.683Z,1014.16
2023-02-13T10:32:56.613Z,1014.24
2023-02-13T10:33:56.555Z,1014.20
2023-02-13T10:34:56.614Z,1014.19
2023-02-13T10:35:56.841Z,1014.11
2023-02-13T10:36:56.554Z,1014.19
2023-02-13T10:37:56.540Z,1014.20
2023-02-13T10:38:56.558Z,1014.14
2023-02-13T10:39:56.506Z,1014.17
2023-02-13T10:40:56.522Z,1014.20
2023-02-13T10:41:56.519Z,1014.17
2023-02-13T10:42:56.479Z,1014.21
2023-02-13T10:43:56.469Z,1014.16
2023-02-13T10:44:56.504Z,1014.18
2023-02-13T10:45:56.613Z,1014.18
2023-02-13T10:46:56.451Z,1014.10
2023-02-13T10:47:56.453Z,1014.07
2023-02-13T10:48:56.437Z,1014.11
2023-02-13T10:49:56.426Z,1014.11
2023-02-13T10:50:56.361Z,1014.12
2023-02-13T10:51:56.400Z,1014.07
2023-02-13T10:52:56.388Z,1014.05
2023-02-13T10:53:56.361Z,1014.04
2023-02-13T10:54:56.352Z,1014.00
2023-02-13T10:55:56.739Z,1014.03
2023-02-13T10:56:56.374Z,1014.00
2023-02-13T10:57:56.359Z,1013.97
2023-02-13T10:58:56.323Z,1013.98
2023-02-13T10:59:56.307Z,1013.96
2023-02-13T11:00:56.346Z,1014.00
2023-02-13T11:01:56.349Z,1013.95
2023-02-13T11:02:56.304Z,1013.93
2023-02-13T11:03:56.287Z,1013.88
2023-02-13T11:04:56.257Z,1013.85
2023-02-13T11:05:56.680Z,1013.84
2023-02-13T11:06:56.257Z,1013.82
2023-02-13T11:07:56.266Z,1013.83
2023-02-13T11:08:56.187Z,1013.84
2023-02-13T11:09:56.172Z,1013.81
2023-02-13T11:10:56.161Z,1013.71
2023-02-13T11:11:56.160Z,1013.73
2023-02-13T11:12:56.132Z,1013.78
2023-02-13T11:13:56.128Z,1013.71
2023-02-13T11:14:56.116Z,1013.75
2023-02-13T11:15:56.540Z,1013.79
2023-02-13T11:16:56.128Z,1013.68
2023-02-13T11:17:56.092Z,1013.79
2023-02-13T11:18:56.065Z,1013.73
2023-02-13T11:19:56.058Z,1013.71
2023-02-13T11:20:56.049Z,1013.75
2023-02-13T11:21:56.057Z,1013.76
2023-02-13T11:22:56.044Z,1013.78
2023-02-13T11:23:56.016Z,1013.79
2023-02-13T11:24:56.013Z,1013.75
2023-02-13T11:25:56.267Z,1013.74
2023-02-13T11:26:56.004Z,1013.75
2023-02-13T11:27:55.979Z,1013.78
2023-02-13T11:28:55.976Z,1013.68
2023-02-13T11:29:55.960Z,1013.70
2023-02-13T11:30:56.041Z,1013.73
2023-02-13T11:31:56.105Z,1013.72
2023-02-13T11:32:55.934Z,1013.74
2023-02-13T11:33:58.558Z,1013.74
2023-02-13T11:34:55.906Z,1013.74
2023-02-13T11:35:56.159Z,1013.77
2023-02-13T11:36:55.904Z,1013.75
2023-02-13T11:37:55.889Z,1013.76
2023-02-13T11:38:55.875Z,1013.72
2023-02-13T11:39:55.872Z,1013.73
2023-02-13T11:40:55.864Z,1013.67
2023-02-13T11:41:55.863Z,1013.71
2023-02-13T11:42:55.838Z,1013.63
2023-02-13T11:43:55.837Z,1013.68
2023-02-13T11:44:55.830Z,1013.55
2023-02-13T11:45:55.834Z,1013.54
2023-02-13T11:46:55.809Z,1013.58
2023-02-13T11:47:55.793Z,1013.58
2023-02-13T11:48:55.798Z,1013.61
2023-02-13T11:49:55.779Z,1013.62
2023-02-13T11:50:55.769Z,1013.60
2023-02-13T11:51:55.788Z,1013.62
2023-02-13T11:52:55.759Z,1013.56
2023-02-13T11:53:55.737Z,1013.52
2023-02-13T11:54:55.734Z,1013.60
2023-02-13T11:55:56.342Z,1013.59
2023-02-13T12:10:38.581Z,1013.36
2023-02-13T12:11:09.357Z,1013.25
2023-02-13T12:12:08.437Z,1013.29
2023-02-13T12:13:08.336Z,1013.32
2023-02-13T12:14:08.273Z,1013.33
2023-02-13T12:15:08.355Z,1013.36
2023-02-13T12:20:57.598Z,1013.23
2023-02-13T12:21:26.240Z,1013.19
2023-02-13T12:22:26.280Z,1013.23
2023-02-13T12:23:26.289Z,1013.22
2023-02-13T12:24:26.274Z,1013.21
2023-02-13T13:19:00.555Z,1012.72
2023-02-13T13:19:38.876Z,1012.73
2023-02-13T13:20:38.863Z,1012.72
2023-02-13T13:21:38.840Z,1012.75
2023-02-13T13:22:38.852Z,1012.73
2023-02-13T13:23:38.863Z,1012.66
2023-02-13T13:24:38.846Z,1012.74
2023-02-13T13:25:38.800Z,1012.71
2023-02-13T13:26:38.836Z,1012.69
2023-02-13T13:27:38.814Z,1012.69
2023-02-13T13:28:38.803Z,1012.67
2023-02-13T13:29:38.766Z,1012.71
2023-02-13T13:30:38.825Z,1012.63
2023-02-13T13:31:38.914Z,1012.67
2023-02-13T13:32:38.757Z,1012.61
2023-02-13T13:33:38.773Z,1012.67
2023-02-13T13:34:38.721Z,1012.66
2023-02-13T13:35:38.768Z,1012.60
2023-02-13T13:36:38.728Z,1012.61
2023-02-13T13:38:02.134Z,1012.60
2023-02-13T13:38:38.696Z,1012.53
2023-02-13T13:39:38.670Z,1012.53
2023-02-13T13:40:38.657Z,1012.49
2023-02-13T13:41:38.670Z,1012.51
2023-02-13T13:42:38.658Z,1012.45
2023-02-13T13:43:38.658Z,1012.46
2023-02-13T13:44:38.616Z,1012.44
2023-02-13T13:45:38.620Z,1012.44
2023-02-13T13:46:38.623Z,1012.46
2023-02-13T13:47:38.592Z,1012.47
2023-02-13T13:48:38.596Z,1012.43
2023-02-13T13:49:38.577Z,1012.44
2023-02-13T13:50:38.574Z,1012.46
2023-02-13T13:51:38.572Z,1012.38
2023-02-13T13:52:38.535Z,1012.43
2023-02-13T13:53:38.586Z,1012.39
2023-02-13T13:54:38.529Z,1012.40
2023-02-13T13:55:38.516Z,1012.41
2023-02-13T13:56:38.512Z,1012.44
2023-02-13T13:57:38.492Z,1012.44
2023-02-13T13:58:38.529Z,1012.35
2023-02-13T13:59:38.480Z,1012.39
2023-02-13T14:00:38.499Z,1012.33
2023-02-13T14:01:38.491Z,1012.32
2023-02-13T14:02:38.592Z,1012.26
2023-02-13T14:03:38.446Z,1012.31
2023-02-13T14:04:38.420Z,1012.27
2023-02-13T14:05:38.417Z,1012.27
2023-02-13T14:06:38.421Z,1012.25
2023-02-13T14:07:38.407Z,1012.21
2023-02-13T14:08:38.412Z,1012.23
2023-02-13T14:09:38.409Z,1012.26
2023-02-13T14:10:38.380Z,1012.23
2023-02-13T14:11:38.387Z,1012.20
2023-02-13T14:12:38.355Z,1012.25
2023-02-13T14:13:38.335Z,1012.15
2023-02-13T14:14:38.338Z,1012.11
2023-02-13T14:15:38.374Z,1012.11
2023-02-13T14:16:38.320Z,1012.14
2023-02-13T14:17:38.300Z,1012.15
2023-02-13T14:18:39.442Z,1012.11
2023-02-13T14:19:39.427Z,1012.10
2023-02-13T14:20:39.412Z,1012.17
2023-02-13T14:21:39.425Z,1012.17
2023-02-13T14:22:39.428Z,1012.14
2023-02-13T14:23:39.419Z,1012.05
2023-02-13T14:24:39.388Z,1012.10
2023-02-13T14:25:39.402Z,1012.17
2023-02-13T14:26:39.357Z,1012.15
2023-02-13T14:27:39.387Z,1012.18
2023-02-13T14:28:39.317Z,1012.14
2023-02-13T14:29:39.329Z,1012.10
2023-02-13T14:30:39.343Z,1012.03
2023-02-13T14:31:39.514Z,1012.11
2023-02-13T14:32:39.311Z,1012.03
2023-02-13T14:33:39.284Z,1012.06
2023-02-13T14:34:39.247Z,1012.09
2023-02-13T14:35:39.267Z,1012.06
2023-02-13T14:36:39.271Z,1012.18
2023-02-13T14:37:39.263Z,1012.07
2023-02-13T14:38:39.248Z,1012.02
2023-02-13T14:39:39.223Z,1012.07
2023-02-13T14:40:39.207Z,1012.09
2023-02-13T14:41:39.211Z,1012.03
2023-02-13T14:42:39.188Z,1012.05
2023-02-13T14:43:39.245Z,1012.19
2023-02-13T14:44:39.195Z,1012.14
2023-02-13T14:45:39.164Z,1012.14
2023-02-13T14:46:39.207Z,1012.13
2023-02-13T14:47:39.180Z,1012.11
2023-02-13T14:48:39.176Z,1012.11
2023-02-13T14:49:39.190Z,1012.17
2023-02-13T14:50:39.164Z,1012.15
2023-02-13T14:51:39.208Z,1012.10
2023-02-13T14:52:39.133Z,1012.10
2023-02-13T14:53:39.124Z,1012.04
2023-02-13T14:54:39.186Z,1011.97
2023-02-13T14:55:39.149Z,1012.02
2023-02-13T14:56:39.113Z,1011.98
2023-02-13T14:57:39.123Z,1011.97
2023-02-13T14:58:39.077Z,1011.93
2023-02-13T14:59:39.085Z,1011.91
2023-02-13T15:00:39.036Z,1012.04
2023-02-13T15:01:39.100Z,1011.93
2023-02-13T15:02:39.046Z,1012.03
2023-02-13T15:03:39.019Z,1012.00
2023-02-13T15:04:39.192Z,1011.97
2023-02-13T15:05:38.953Z,1012.03
2023-02-13T15:06:38.941Z,1012.02
2023-02-13T15:07:38.934Z,1012.08
2023-02-13T15:08:38.919Z,1011.98
2023-02-13T15:09:38.962Z,1012.04
2023-02-13T15:10:38.919Z,1011.94
2023-02-13T15:11:38.893Z,1012.07
2023-02-13T15:12:38.880Z,1011.97
2023-02-13T15:13:38.872Z,1011.98
2023-02-13T15:14:38.887Z,1012.01
2023-02-13T15:15:38.869Z,1011.87
2023-02-13T15:16:38.837Z,1011.94
2023-02-13T15:17:38.825Z,1012.01
2023-02-13T15:18:38.859Z,1011.89
2023-02-13T15:19:38.816Z,1011.96
2023-02-13T15:20:38.798Z,1011.91
2023-02-13T15:21:38.785Z,1011.93
2023-02-13T15:22:38.783Z,1011.94
2023-02-13T15:23:38.772Z,1011.96
2023-02-13T15:24:38.761Z,1011.88
2023-02-13T15:25:38.744Z,1011.94
2023-02-13T15:26:38.732Z,1011.93
2023-02-13T15:27:38.745Z,1011.99
2023-02-13T15:28:38.711Z,1011.93
2023-02-13T15:29:49.588Z,1011.91
2023-02-13T15:30:40.690Z,1011.98
2023-02-13T15:31:38.800Z,1011.96
2023-02-13T15:32:38.661Z,1011.97
2023-02-13T15:33:38.677Z,1011.91
2023-02-13T15:34:38.679Z,1011.94
2023-02-13T15:35:40.505Z,1011.96
2023-02-13T15:36:39.490Z,1011.89
2023-02-13T15:37:38.732Z,1011.93
2023-02-13T15:38:38.713Z,1011.88
2023-02-13T15:39:38.681Z,1011.84
2023-02-13T15:40:38.672Z,1011.85
2023-02-13T15:41:38.685Z,1011.87
2023-02-13T15:42:38.699Z,1011.83
2023-02-13T15:43:38.613Z,1011.87
2023-02-13T15:44:38.730Z,1011.87
2023-02-13T15:45:38.642Z,1011.82
2023-02-13T15:46:38.836Z,1011.88
2023-02-13T15:47:38.678Z,1011.87
2023-02-13T15:48:38.625Z,1011.98
2023-02-13T15:49:38.658Z,1011.85
2023-02-13T15:50:38.655Z,1011.91
2023-02-13T15:51:38.618Z,1011.86
2023-02-13T15:52:38.549Z,1011.79
2023-02-13T15:53:38.588Z,1011.94
2023-02-13T15:54:38.624Z,1011.89
2023-02-13T15:55:38.570Z,1011.93
2023-02-13T15:56:38.504Z,1011.91
2023-02-13T15:57:38.641Z,1011.89
2023-02-13T15:58:38.569Z,1011.86
2023-02-13T15:59:38.543Z,1011.79
2023-02-13T16:00:38.531Z,1011.81
2023-02-13T16:01:38.540Z,1011.82
2023-02-13T16:02:38.428Z,1011.78
2023-02-13T16:03:38.567Z,1011.78
2023-02-13T16:11:51.797Z,1011.77
2023-02-13T16:12:45.956Z,1011.83
2023-02-13T16:13:45.937Z,1011.73
2023-02-13T16:29:11.675Z,1011.97
2023-02-13T16:30:11.639Z,1011.94
2023-02-13T16:31:11.688Z,1011.93
2023-02-13T16:32:11.691Z,1012.03
2023-02-13T16:33:11.595Z,1011.95
2023-02-13T16:34:11.683Z,1011.93
2023-02-13T16:35:11.641Z,1011.98
2023-02-13T16:36:11.569Z,1011.99
2023-02-13T16:37:11.538Z,1011.98
2023-02-13T16:38:11.517Z,1012.05
2023-02-13T16:39:11.524Z,1012.04
2023-02-13T16:40:11.572Z,1012.02
2023-02-13T16:41:11.514Z,1011.98
2023-02-13T16:42:11.478Z,1011.95
2023-02-13T16:43:11.473Z,1012.07
2023-02-13T16:44:11.465Z,1012.02
2023-02-13T16:45:11.449Z,1012.06
2023-02-13T16:46:11.451Z,1012.08
2023-02-13T16:47:11.435Z,1012.06